Time;durP1;ratioP1;P1;durP2;ratioP2;P2;SDS_P1;SDS_P2;PMS_P1;PMS_P2;Temp;Humidity;BMP_temperature;BMP_pressure;BME280_temperature;BME280_humidity;BME280_pressure;Samples;Min_cycle;Max_cycle;Signal;HPM_P1;HPM_P2
2023/07/17 00:01:10;;;;;;;6.75;2.60;;;;;;;19.68;64.54;100196.66;10421060;28;20039;-51
2023/07/17 00:06:11;;;;;;;4.65;2.28;;;;;;;19.47;65.15;100193.41;10421111;28;20042;-53
2023/07/17 00:11:11;;;;;;;9.50;2.50;;;;;;;19.36;65.37;100191.50;10420519;28;20037;-53
2023/07/17 00:16:12;;;;;;;7.95;2.38;;;;;;;19.40;65.44;100203.47;10419926;28;20077;-54
2023/07/17 00:21:13;;;;;;;6.57;2.40;;;;;;;19.37;65.91;100196.66;10420879;28;20053;-53
2023/07/17 00:26:13;;;;;;;6.72;2.80;;;;;;;19.32;66.56;100199.22;10420142;28;20513;-56
2023/07/17 00:31:14;;;;;;;12.48;2.90;;;;;;;19.09;66.83;100177.59;10419277;28;20041;-53
2023/07/17 00:36:15;;;;;;;10.55;2.70;;;;;;;18.97;67.48;100199.09;10418960;28;20493;-53
2023/07/17 00:41:16;;;;;;;13.13;2.50;;;;;;;18.86;67.64;100211.41;10419503;28;20041;-53
2023/07/17 00:46:17;;;;;;;10.85;2.80;;;;;;;18.77;68.23;100203.88;10419094;28;20519;-52
2023/07/17 00:51:19;;;;;;;16.15;3.00;;;;;;;18.71;68.27;100211.78;10418516;28;20037;-52
2023/07/17 00:56:20;;;;;;;25.10;4.00;;;;;;;18.57;69.26;100198.69;10417925;28;20049;-53
2023/07/17 01:01:22;;;;;;;13.13;3.03;;;;;;;18.03;69.88;100121.25;10418189;28;20052;-52
2023/07/17 01:06:26;;;;;;;13.68;3.35;;;;;;;18.37;71.51;100188.16;10419256;28;20134;-53
2023/07/17 01:11:27;;;;;;;10.88;2.78;;;;;;;18.41;70.55;100200.94;10418062;28;20029;-50
2023/07/17 01:16:28;;;;;;;20.60;3.60;;;;;;;18.32;70.72;100201.44;10417499;28;20497;-54
2023/07/17 01:21:30;;;;;;;51.10;4.63;;;;;;;17.71;71.85;100136.66;10416106;28;20049;-51
2023/07/17 01:26:31;;;;;;;16.92;3.90;;;;;;;18.05;72.09;100211.63;10415961;28;20045;-51
2023/07/17 01:31:31;;;;;;;20.42;4.78;;;;;;;17.53;72.59;100133.91;10408612;28;20405;-51
2023/07/17 01:36:32;;;;;;;15.10;3.10;;;;;;;17.70;72.79;100194.09;10417065;28;20049;-53
2023/07/17 01:41:33;;;;;;;13.93;4.10;;;;;;;17.65;73.42;100223.47;10411648;28;20064;-53
2023/07/17 01:46:34;;;;;;;34.03;5.75;;;;;;;17.10;73.85;100150.69;10413521;28;20049;-52
2023/07/17 01:51:35;;;;;;;17.60;3.75;;;;;;;17.09;74.33;100149.06;10415089;28;20045;-53
2023/07/17 01:56:35;;;;;;;34.08;4.15;;;;;;;17.47;74.59;100223.38;10399215;28;20046;-51
2023/07/17 02:01:36;;;;;;;18.25;4.38;;;;;;;17.44;75.01;100216.59;10416276;28;20037;-53
2023/07/17 02:06:37;;;;;;;21.23;4.07;;;;;;;17.26;75.22;100177.06;10415617;28;20049;-50
2023/07/17 02:11:38;;;;;;;15.02;3.58;;;;;;;17.69;75.07;100243.50;10416055;28;20400;-52
2023/07/17 02:16:38;;;;;;;7.85;3.30;;;;;;;17.72;75.21;100236.88;10415521;28;20103;-52
2023/07/17 02:21:39;;;;;;;13.82;3.38;;;;;;;17.75;75.21;100228.38;10415721;28;20115;-51
2023/07/17 02:26:40;;;;;;;13.90;3.63;;;;;;;17.44;75.35;100159.34;10414809;28;20095;-51
2023/07/17 02:31:41;;;;;;;17.02;3.15;;;;;;;17.58;75.44;100164.41;10414648;28;20103;-50
2023/07/17 02:36:42;;;;;;;15.65;5.03;;;;;;;18.20;75.39;100220.19;10415203;28;20072;-51
2023/07/17 02:41:44;;;;;;;33.05;4.30;;;;;;;18.86;75.25;100237.53;10414603;28;20049;-53
2023/07/17 02:46:44;;;;;;;31.80;4.68;;;;;;;19.70;73.41;100225.00;10414076;28;20037;-53
2023/07/17 02:51:45;;;;;;;7.18;3.15;;;;;;;20.82;70.45;100229.53;10414127;28;20481;-54
2023/07/17 02:56:46;;;;;;;7.53;2.75;;;;;;;21.96;67.13;100233.28;10414291;28;20041;-53
2023/07/17 03:01:48;;;;;;;17.48;2.88;;;;;;;23.18;63.69;100245.84;10414044;28;20041;-53
2023/07/17 03:06:48;;;;;;;10.02;2.67;;;;;;;24.27;61.11;100232.19;10413613;28;20497;-53
2023/07/17 03:11:49;;;;;;;16.73;3.20;;;;;;;25.12;58.78;100237.53;10413629;28;20042;-55
2023/07/17 03:16:50;;;;;;;41.28;4.25;;;;;;;25.86;55.88;100200.97;10413237;28;20079;-56
2023/07/17 03:21:51;;;;;;;10.05;2.80;;;;;;;26.58;54.39;100243.34;10413565;28;20052;-53
2023/07/17 03:26:51;;;;;;;6.25;2.42;;;;;;;27.55;52.40;100261.19;10413945;28;20049;-54
2023/07/17 03:31:53;;;;;;;7.10;2.65;;;;;;;27.72;51.36;100241.69;10413183;28;20044;-54
2023/07/17 03:36:54;;;;;;;12.20;3.60;;;;;;;27.81;50.00;100256.41;10412641;28;20045;-54
2023/07/17 03:41:54;;;;;;;7.80;2.42;;;;;;;28.03;48.54;100204.09;10413524;28;20042;-54
2023/07/17 03:46:55;;;;;;;8.25;2.60;;;;;;;28.70;47.37;100249.84;10410845;28;20030;-73
2023/07/17 03:51:58;;;;;;;14.15;2.90;;;;;;;29.08;46.59;100259.00;10413466;28;20473;-73
2023/07/17 03:56:58;;;;;;;6.28;2.28;;;;;;;29.53;45.51;100259.47;10410798;28;20048;-74
2023/07/17 04:01:59;;;;;;;14.20;2.72;;;;;;;29.68;45.09;100212.72;10410978;28;20378;-74
2023/07/17 04:07:00;;;;;;;6.10;2.40;;;;;;;29.66;44.96;100258.72;10381477;28;20080;-74
2023/07/17 04:12:03;;;;;;;4.80;2.00;;;;;;;29.03;45.01;100264.50;10409328;28;20439;-73
2023/07/17 04:17:05;;;;;;;8.32;2.60;;;;;;;28.19;47.61;100267.56;10410778;28;20114;-74
2023/07/17 04:22:06;;;;;;;5.00;2.42;;;;;;;29.10;45.05;100229.41;10410863;28;20076;-73
2023/07/17 04:27:06;;;;;;;7.43;1.98;;;;;;;29.25;45.11;100247.53;10408047;28;20522;-74
2023/07/17 04:32:09;;;;;;;6.35;2.28;;;;;;;29.41;44.87;100250.88;10413441;28;20107;-74
2023/07/17 04:37:09;;;;;;;;;;;;;;;29.37;44.69;100244.34;10414964;28;20077;-75
2023/07/17 04:42:10;;;;;;;8.43;3.88;;;;;;;29.07;45.66;100240.94;10417325;28;19917;-75
2023/07/17 04:47:12;;;;;;;7.55;3.75;;;;;;;29.24;44.65;100204.88;10419845;28;20124;-81
2023/07/17 04:52:12;;;;;;;8.43;3.03;;;;;;;29.34;43.73;100207.44;10416326;28;20076;-80
2023/07/17 04:57:13;;;;;;;8.40;2.40;;;;;;;29.43;43.44;100175.56;10418917;28;20053;-78
2023/07/17 05:02:14;;;;;;;8.40;2.42;;;;;;;30.12;42.92;100237.97;10418237;28;20072;-79
2023/07/17 05:07:15;;;;;;;3.72;2.10;;;;;;;29.49;42.72;100154.41;10419243;28;20490;-79
2023/07/17 05:12:15;;;;;;;13.45;3.25;;;;;;;29.91;42.97;100238.31;10417732;28;20043;-79
2023/07/17 05:17:16;;;;;;;7.57;2.60;;;;;;;29.19;42.76;100200.28;10417312;28;20065;-77
2023/07/17 05:22:17;;;;;;;11.20;4.68;;;;;;;28.80;44.03;100222.38;10418127;28;20041;-77
2023/07/17 05:27:18;;;;;;;10.60;4.10;;;;;;;27.73;44.90;100094.06;10418561;28;20045;-78
2023/07/17 05:32:19;;;;;;;6.68;2.47;;;;;;;28.05;45.16;100166.38;10417447;28;20069;-77
2023/07/17 05:37:20;;;;;;;5.82;2.45;;;;;;;27.95;44.85;100234.72;10416624;28;20073;-77
2023/07/17 05:42:20;;;;;;;4.72;2.17;;;;;;;27.53;45.75;100165.19;10416520;28;20072;-76
2023/07/17 05:47:21;;;;;;;7.63;2.47;;;;;;;28.01;45.17;100228.13;10417049;28;20044;-77
2023/07/17 05:52:22;;;;;;;9.50;2.40;;;;;;;27.83;45.41;100190.63;10416391;28;20043;-77
2023/07/17 05:57:23;;;;;;;12.88;2.53;;;;;;;28.23;44.93;100217.50;10416420;28;20045;-78
2023/07/17 06:02:23;;;;;;;6.55;2.30;;;;;;;27.92;44.23;100161.59;10416365;28;20751;-77
2023/07/17 06:07:24;;;;;;;6.43;2.55;;;;;;;28.01;43.97;100187.16;10416017;28;20043;-77
2023/07/17 06:12:25;;;;;;;4.25;1.92;;;;;;;28.23;43.59;100194.84;10416219;28;20048;-77
2023/07/17 06:17:26;;;;;;;5.43;1.98;;;;;;;28.52;43.27;100194.84;10414147;28;20049;-78
2023/07/17 06:22:26;;;;;;;5.28;1.70;;;;;;;28.19;42.60;100196.56;10415642;28;20045;-78
2023/07/17 06:27:27;;;;;;;6.28;1.50;;;;;;;27.61;41.97;100114.63;10414825;28;20045;-75
2023/07/17 06:32:28;;;;;;;4.47;2.08;;;;;;;27.70;42.20;100172.94;10415327;28;20041;-76
2023/07/17 06:37:28;;;;;;;3.65;1.90;;;;;;;27.97;41.59;100161.53;10414873;28;20103;-75
2023/07/17 06:42:30;;;;;;;10.90;1.80;;;;;;;28.48;40.98;100158.28;10414103;28;20041;-77
2023/07/17 06:47:31;;;;;;;21.55;2.97;;;;;;;28.28;44.70;100203.00;10412953;28;20455;-79
2023/07/17 06:52:31;;;;;;;8.77;2.70;;;;;;;26.40;51.35;100206.59;10414267;28;20084;-81
2023/07/17 06:57:32;;;;;;;5.18;1.98;;;;;;;25.13;55.41;100207.41;10412925;28;20041;-80
2023/07/17 07:02:34;;;;;;;6.43;2.10;;;;;;;24.59;58.64;100208.53;10414195;28;20382;-78
2023/07/17 07:07:34;;;;;;;3.67;1.90;;;;;;;24.35;59.56;100189.09;10413412;28;20063;-77
2023/07/17 07:12:35;;;;;;;5.80;2.00;;;;;;;24.53;58.27;100193.28;10413604;28;20034;-77
2023/07/17 07:17:36;;;;;;;2.75;1.70;;;;;;;25.40;57.63;100171.81;10413359;28;20437;-79
2023/07/17 07:22:37;;;;;;;7.57;1.83;;;;;;;26.37;53.21;100163.56;10413004;28;20485;-77
2023/07/17 07:27:37;;;;;;;2.88;1.52;;;;;;;26.80;51.93;100158.53;10413285;28;20128;-77
2023/07/17 07:32:39;;;;;;;3.78;1.75;;;;;;;26.95;49.74;100167.72;10413776;28;20049;-78
2023/07/17 07:37:40;;;;;;;4.22;1.75;;;;;;;26.42;49.36;100160.03;10413609;28;20041;-79
2023/07/17 07:42:42;;;;;;;4.50;1.45;;;;;;;25.89;48.28;100100.53;10413682;28;20439;-78
2023/07/17 07:47:46;;;;;;;6.25;1.83;;;;;;;26.05;47.81;100104.03;10412507;28;20551;-79
2023/07/17 07:52:46;;;;;;;11.02;4.78;;;;;;;26.71;46.62;100165.66;10412477;28;20126;-75
2023/07/17 07:57:49;;;;;;;5.10;2.13;;;;;;;26.91;44.96;100074.78;10413486;28;20132;-74
2023/07/17 08:02:50;;;;;;;4.38;2.17;;;;;;;28.13;43.86;100157.53;10411439;28;20132;-77
2023/07/17 08:07:51;;;;;;;6.72;2.40;;;;;;;28.41;42.07;100161.34;10418484;28;20033;-76
2023/07/17 08:12:51;;;;;;;2.88;1.70;;;;;;;28.63;41.11;100157.28;10420734;28;20045;-76
2023/07/17 08:17:52;;;;;;;5.10;1.90;;;;;;;28.84;40.96;100136.78;10419695;28;20081;-75
2023/07/17 08:22:55;;;;;;;3.50;1.67;;;;;;;28.60;40.61;100093.09;10420186;28;20038;-76
2023/07/17 08:27:56;;;;;;;4.07;1.65;;;;;;;28.73;39.80;100154.41;10420195;28;20045;-77
2023/07/17 08:32:57;;;;;;;5.53;1.70;;;;;;;28.43;40.04;100120.09;10419357;28;20037;-76
2023/07/17 08:37:57;;;;;;;3.17;1.70;;;;;;;28.74;38.75;100138.81;10419204;28;20045;-76
2023/07/17 08:43:00;;;;;;;5.78;1.90;;;;;;;28.76;38.78;100136.63;10418541;28;20044;-76
2023/07/17 08:48:02;;;;;;;;;;;;;;;29.24;38.84;100139.22;10419617;28;20048;-75
2023/07/17 08:53:04;;;;;;;7.18;1.98;;;;;;;28.84;37.44;100114.09;10419133;28;20011;-75
2023/07/17 08:58:04;;;;;;;3.47;1.50;;;;;;;29.01;37.05;100124.50;10418326;28;20591;-77
2023/07/17 09:03:05;;;;;;;3.67;1.60;;;;;;;29.25;36.63;100124.44;10419019;28;20172;-75
2023/07/17 09:08:06;;;;;;;5.82;1.65;;;;;;;29.56;36.29;100105.59;10418102;28;20124;-76
2023/07/17 09:13:07;;;;;;;5.97;1.90;;;;;;;29.67;35.21;100098.03;10418328;28;20124;-76
2023/07/17 09:18:08;;;;;;;3.50;1.50;;;;;;;29.88;35.32;100099.25;10417314;28;20076;-76
2023/07/17 09:23:08;;;;;;;3.88;1.45;;;;;;;29.88;35.73;100102.00;10418075;28;20134;-76
2023/07/17 09:28:09;;;;;;;7.25;1.60;;;;;;;30.16;35.03;100102.84;10417994;28;20405;-75
2023/07/17 09:33:10;;;;;;;4.82;1.50;;;;;;;30.12;34.30;100076.34;10416975;28;20044;-77
2023/07/17 09:38:11;;;;;;;2.28;1.38;;;;;;;30.11;34.36;100039.13;10416785;28;20132;-76
2023/07/17 09:43:11;;;;;;;5.68;1.65;;;;;;;29.93;34.60;100095.63;10416754;28;20038;-76
2023/07/17 09:48:14;;;;;;;6.03;1.92;;;;;;;28.93;35.54;100027.56;10416702;28;20069;-77
2023/07/17 09:53:15;;;;;;;;;;;;;;;29.70;35.68;100091.94;10416500;28;20045;-75
2023/07/17 09:58:18;;;;;;;3.72;2.10;;;;;;;29.44;35.11;100097.84;10416019;28;20336;-76
2023/07/17 10:03:21;;;;;;;7.25;2.05;;;;;;;29.18;36.21;100088.44;10415698;28;20069;-76
2023/07/17 10:08:22;;;;;;;;;;;;;;;29.33;36.27;100099.94;10415694;28;20037;-75
2023/07/17 10:13:23;;;;;;;5.20;1.42;;;;;;;28.47;36.35;100071.13;10416212;28;19919;-76
2023/07/17 10:18:24;;;;;;;4.95;1.30;;;;;;;28.37;36.63;100096.66;10407705;28;20057;-77
2023/07/17 10:23:27;;;;;;;3.03;1.40;;;;;;;28.29;36.72;100102.75;10417538;28;20114;-77
2023/07/17 10:28:32;;;;;;;4.90;1.58;;;;;;;28.37;36.80;100091.19;10426541;28;20056;-79
2023/07/17 10:33:37;;;;;;;4.55;1.63;;;;;;;28.60;38.16;100095.03;10435410;28;20040;-77
2023/07/17 10:38:38;;;;;;;3.50;1.50;;;;;;;28.46;36.65;100023.06;10433617;28;20056;-79
2023/07/17 10:44:03;;;;;;;2.75;1.42;;;;;;;29.53;36.08;100051.44;10452247;28;20063;-76
2023/07/17 10:49:12;;;;;;;11.27;1.83;;;;;;;29.84;34.88;100040.75;10453409;28;20485;-77
2023/07/17 10:54:15;;;;;;;3.08;1.60;;;;;;;29.86;35.16;100019.38;10437773;28;20123;-81
2023/07/17 10:59:17;;;;;;;6.30;1.90;;;;;;;29.29;36.10;99988.69;10452673;28;20086;-78
2023/07/17 11:04:18;;;;;;;9.13;1.67;;;;;;;29.27;36.17;99986.22;10445681;28;20028;-79
2023/07/17 11:09:19;;;;;;;3.88;1.83;;;;;;;29.13;36.06;100065.50;10453540;28;20128;-78
2023/07/17 11:14:20;;;;;;;5.40;1.77;;;;;;;28.40;36.93;100035.94;10451901;28;20044;-76
2023/07/17 11:19:21;;;;;;;4.43;1.60;;;;;;;28.19;36.75;100036.22;10452311;28;20065;-80
2023/07/17 11:24:23;;;;;;;6.70;1.80;;;;;;;27.67;37.67;99957.94;10450708;28;20036;-76
2023/07/17 11:29:24;;;;;;;4.80;1.52;;;;;;;29.09;36.24;100037.16;10452456;28;20033;-77
2023/07/17 11:34:25;;;;;;;4.95;1.65;;;;;;;29.16;36.03;100041.41;10446381;28;20147;-76
2023/07/17 11:39:31;;;;;;;26.00;2.80;;;;;;;29.27;36.48;100031.94;10436888;28;20045;-77
2023/07/17 11:44:33;;;;;;;7.93;2.05;;;;;;;29.96;36.07;100026.56;10433405;28;20072;-78
2023/07/17 11:49:35;;;;;;;5.95;1.65;;;;;;;29.80;33.73;99980.31;10408930;28;20437;-73
2023/07/17 11:54:38;;;;;;;5.32;1.33;;;;;;;29.57;33.46;100031.38;10394372;28;20453;-71
2023/07/17 11:59:43;;;;;;;4.75;1.38;;;;;;;29.28;33.34;99948.75;10401484;28;20651;-72
2023/07/17 12:04:44;;;;;;;3.15;1.40;;;;;;;29.98;31.91;100022.41;10407236;28;20080;-72
2023/07/17 12:09:46;;;;;;;3.35;1.58;;;;;;;29.54;31.93;99993.66;10410954;28;20069;-72
2023/07/17 12:14:47;;;;;;;6.17;1.60;;;;;;;29.73;31.87;100007.28;10413059;28;20049;-69
2023/07/17 12:19:47;;;;;;;3.83;1.40;;;;;;;30.18;31.54;100001.16;10395699;28;20066;-73
2023/07/17 12:24:48;;;;;;;5.03;1.60;;;;;;;30.14;31.69;99992.75;10390044;28;20053;-72
2023/07/17 12:29:49;;;;;;;26.00;3.50;;;;;;;29.27;35.00;99999.09;10399845;28;20072;-74
2023/07/17 12:34:50;;;;;;;12.70;2.10;;;;;;;27.88;41.12;100063.09;10430759;28;20052;-73
2023/07/17 12:39:51;;;;;;;24.67;3.47;;;;;;;26.39;43.22;100014.34;10418552;28;20041;-73
2023/07/17 12:44:51;;;;;;;6.57;1.92;;;;;;;26.25;43.36;100037.81;10411012;28;20044;-73
2023/07/17 12:49:52;;;;;;;12.45;2.70;;;;;;;27.05;43.11;100083.16;10415258;28;20045;-72
2023/07/17 12:54:53;;;;;;;10.07;2.10;;;;;;;27.42;43.24;100096.25;10452320;28;20041;-73
2023/07/17 12:59:54;;;;;;;6.40;1.65;;;;;;;27.56;41.94;100050.00;10458829;28;20036;-78
2023/07/17 13:04:55;;;;;;;8.88;1.63;;;;;;;27.69;41.54;100065.69;10458649;28;20043;-73
2023/07/17 13:09:56;;;;;;;6.45;1.77;;;;;;;26.92;41.86;99980.19;10452384;28;20489;-72
2023/07/17 13:14:56;;;;;;;10.75;1.63;;;;;;;26.89;42.11;99992.47;10454711;28;20404;-72
2023/07/17 13:19:57;;;;;;;5.38;1.60;;;;;;;27.25;41.98;100072.13;10430246;28;20065;-73
2023/07/17 13:24:58;;;;;;;6.05;1.75;;;;;;;27.31;42.28;100106.44;10413238;28;20512;-73
2023/07/17 13:29:59;;;;;;;17.90;2.30;;;;;;;27.27;42.45;100101.81;10415161;28;20046;-72
2023/07/17 13:35:00;;;;;;;6.05;1.45;;;;;;;27.13;41.13;100115.25;10416002;28;20056;-73
2023/07/17 13:40:00;;;;;;;3.53;1.48;;;;;;;27.12;40.63;100085.56;10415079;28;20049;-76
2023/07/17 13:45:01;;;;;;;21.30;2.42;;;;;;;27.45;38.83;100100.31;10415756;28;20041;-75
2023/07/17 13:50:02;;;;;;;14.88;2.03;;;;;;;27.57;39.23;100108.94;10415545;28;20045;-73
2023/07/17 13:55:04;;;;;;;6.78;1.92;;;;;;;27.24;40.31;100042.41;10414705;28;20068;-74
2023/07/17 14:00:05;;;;;;;11.35;2.20;;;;;;;27.10;42.37;100104.91;10410017;28;20045;-75
2023/07/17 14:05:06;;;;;;;3.80;1.45;;;;;;;26.77;43.00;100117.38;10414987;28;20037;-73
2023/07/17 14:10:07;;;;;;;6.18;1.95;;;;;;;25.75;43.37;99952.53;10416898;28;20041;-71
2023/07/17 14:15:09;;;;;;;6.43;1.40;;;;;;;26.69;40.16;100023.44;10416720;28;20421;-72
2023/07/17 14:20:10;;;;;;;8.00;1.00;;;;;;;26.98;38.47;100012.59;10414887;28;20671;-72
2023/07/17 14:25:12;;;;;;;1.73;1.00;;;;;;;27.82;36.44;100079.78;10414050;28;20049;-74
2023/07/17 14:30:13;;;;;;;2.97;0.93;;;;;;;27.70;35.51;100050.13;10414092;28;20037;-73
2023/07/17 14:35:14;;;;;;;6.40;0.93;;;;;;;28.04;35.39;100071.91;10415127;28;20037;-73
2023/07/17 14:40:16;;;;;;;2.60;0.73;;;;;;;27.87;34.70;100083.28;10413719;28;20037;-73
2023/07/17 14:45:17;;;;;;;1.30;0.80;;;;;;;27.41;35.13;100025.63;10414445;28;20520;-73
2023/07/17 14:50:19;;;;;;;3.00;1.00;;;;;;;27.25;35.34;100022.19;10415294;28;20038;-74
2023/07/17 14:55:20;;;;;;;2.45;0.98;;;;;;;27.46;35.67;100083.69;10413719;28;20076;-77
2023/07/17 15:00:22;;;;;;;10.13;1.42;;;;;;;27.40;36.93;100086.72;10414808;28;20143;-72
2023/07/17 15:05:23;;;;;;;4.65;1.25;;;;;;;27.28;37.55;100109.72;10414805;28;20041;-73
2023/07/17 15:10:24;;;;;;;3.25;1.48;;;;;;;27.18;38.15;100085.25;10413684;28;20072;-73
2023/07/17 15:15:24;;;;;;;1.73;0.93;;;;;;;27.19;38.37;100081.44;10413677;28;20040;-72
2023/07/17 15:20:25;;;;;;;2.05;1.13;;;;;;;26.88;39.17;100033.66;10443197;28;20088;-72
2023/07/17 15:25:26;;;;;;;5.38;1.40;;;;;;;26.55;39.51;99982.38;10448024;28;20496;-71
2023/07/17 15:30:27;;;;;;;7.82;1.30;;;;;;;26.50;39.54;99993.31;10449395;28;20563;-73
2023/07/17 15:35:28;;;;;;;2.22;1.20;;;;;;;26.55;40.12;100025.97;10453100;28;20036;-75
2023/07/17 15:40:29;;;;;;;5.13;1.60;;;;;;;26.71;41.22;100088.53;10430329;28;20041;-75
2023/07/17 15:45:30;;;;;;;3.90;1.58;;;;;;;26.44;42.42;100102.53;10452483;28;20041;-72
2023/07/17 15:50:31;;;;;;;9.18;1.90;;;;;;;26.21;43.39;100117.63;10452701;28;20036;-72
2023/07/17 15:55:32;;;;;;;7.93;1.70;;;;;;;25.70;43.85;100077.72;10451237;28;20498;-73
2023/07/17 16:00:32;;;;;;;7.70;1.60;;;;;;;25.29;43.73;100026.09;10419983;28;20072;-73
2023/07/17 16:05:33;;;;;;;3.70;1.70;;;;;;;25.07;44.20;100007.31;10413262;28;20489;-72
2023/07/17 16:10:34;;;;;;;3.00;1.73;;;;;;;25.54;43.72;100122.31;10401489;28;20505;-73
2023/07/17 16:15:35;;;;;;;2.58;1.40;;;;;;;25.27;43.42;100101.66;10402004;28;20038;-72
2023/07/17 16:20:36;;;;;;;7.03;2.10;;;;;;;25.23;43.43;100142.16;10402133;28;20057;-72
2023/07/17 16:25:37;;;;;;;5.45;2.08;;;;;;;25.06;43.62;100141.56;10378434;28;20092;-72
2023/07/17 16:30:38;;;;;;;3.13;1.50;;;;;;;24.51;43.84;100081.38;10379056;28;20112;-72
2023/07/17 16:35:38;;;;;;;4.18;1.27;;;;;;;24.80;44.10;100159.72;10379198;28;20127;-72
2023/07/17 16:40:39;;;;;;;10.68;1.58;;;;;;;24.63;44.11;100154.47;10449744;28;20431;-72
2023/07/17 16:45:40;;;;;;;5.07;1.42;;;;;;;24.30;44.56;100133.94;10451223;28;20052;-72
2023/07/17 16:50:41;;;;;;;3.97;1.38;;;;;;;24.24;45.10;100157.53;10453397;28;20044;-72
2023/07/17 16:55:42;;;;;;;4.35;2.42;;;;;;;24.12;45.81;100168.59;10440908;28;20037;-74
2023/07/17 17:00:43;;;;;;;5.88;2.00;;;;;;;24.01;46.26;100172.31;10419082;28;20060;-73
2023/07/17 17:05:44;;;;;;;11.95;1.60;;;;;;;23.28;46.37;100079.00;10418769;28;20532;-72
2023/07/17 17:10:45;;;;;;;2.67;1.25;;;;;;;23.74;47.00;100160.72;10419676;28;20033;-73
2023/07/17 17:15:45;;;;;;;6.25;1.10;;;;;;;23.75;46.96;100189.47;10405795;28;20069;-73
2023/07/17 17:20:46;;;;;;;8.77;1.50;;;;;;;23.59;48.75;100189.31;10418537;28;20049;-72
2023/07/17 17:25:47;;;;;;;9.35;1.80;;;;;;;23.19;50.33;100168.06;10439892;28;20524;-72
2023/07/17 17:30:47;;;;;;;10.18;1.80;;;;;;;22.68;50.88;100138.50;10457815;28;20052;-72
2023/07/17 17:35:48;;;;;;;7.00;2.25;;;;;;;22.24;51.88;100088.97;10456541;28;20036;-73
2023/07/17 17:40:49;;;;;;;10.95;1.65;;;;;;;22.46;52.33;100153.91;10457678;28;20079;-73
2023/07/17 17:45:50;;;;;;;5.20;1.48;;;;;;;22.53;53.04;100187.06;10457938;28;20564;-73
2023/07/17 17:50:51;;;;;;;8.18;1.70;;;;;;;22.61;54.12;100200.13;10448173;28;20045;-73
2023/07/17 17:55:52;;;;;;;6.65;1.35;;;;;;;22.36;53.93;100151.09;10454224;28;20037;-73
2023/07/17 18:00:53;;;;;;;6.82;1.92;;;;;;;21.72;53.91;100044.16;10447064;28;20037;-73
2023/07/17 18:05:54;;;;;;;5.60;1.40;;;;;;;22.20;53.98;100112.19;10410457;28;20140;-73
2023/07/17 18:10:55;;;;;;;11.35;1.70;;;;;;;22.61;54.56;100173.06;10414093;28;20068;-73
2023/07/17 18:15:56;;;;;;;9.70;1.77;;;;;;;22.81;54.10;100204.19;10414319;28;20046;-73
2023/07/17 18:20:57;;;;;;;49.20;3.28;;;;;;;22.79;55.24;100205.25;10415155;28;20057;-73
2023/07/17 18:25:58;;;;;;;7.50;2.03;;;;;;;22.38;55.83;100141.66;10415686;28;20509;-72
2023/07/17 18:30:58;;;;;;;7.50;1.65;;;;;;;22.73;56.69;100208.94;10414804;28;20049;-72
2023/07/17 18:35:59;;;;;;;5.38;1.73;;;;;;;22.70;56.02;100193.19;10404010;28;20046;-72
2023/07/17 18:41:02;;;;;;;8.02;2.13;;;;;;;22.66;56.00;100175.84;10415549;28;20505;-73
2023/07/17 18:46:02;;;;;;;4.40;1.85;;;;;;;22.91;55.29;100194.28;10414579;28;20045;-73
2023/07/17 18:51:03;;;;;;;5.05;1.38;;;;;;;22.72;55.36;100131.50;10412769;28;20037;-73
2023/07/17 18:56:04;;;;;;;2.72;1.23;;;;;;;23.11;54.82;100191.00;10414500;28;20516;-72
2023/07/17 19:01:05;;;;;;;4.63;1.60;;;;;;;22.59;55.04;100099.41;10413421;28;20033;-73
2023/07/17 19:06:06;;;;;;;6.50;1.63;;;;;;;23.22;55.25;100189.25;10414925;28;20049;-73
2023/07/17 19:11:16;;;;;;;7.28;1.50;;;;;;;23.27;56.28;100193.88;10413501;28;20044;-73
2023/07/17 19:16:19;;;;;;;3.90;1.70;;;;;;;22.69;55.34;100079.75;10412231;28;20175;-73
2023/07/17 19:21:20;;;;;;;;;;;;;;;23.44;54.91;100183.75;10414927;28;20563;-72
2023/07/17 19:26:21;;;;;;;7.63;1.98;;;;;;;23.22;56.33;100184.63;10412837;28;19936;-73
2023/07/17 19:31:26;;;;;;;7.15;1.80;;;;;;;22.91;56.17;100150.13;10413861;28;20033;-72
2023/07/17 19:36:26;;;;;;;16.88;2.28;;;;;;;22.63;56.83;100107.84;10412731;28;20041;-72
2023/07/17 19:41:29;;;;;;;17.95;2.45;;;;;;;22.64;57.92;100139.25;10411338;28;20041;-72
2023/07/17 19:46:30;;;;;;;7.07;2.05;;;;;;;22.64;58.64;100177.97;10413050;28;20536;-72
2023/07/17 19:51:31;;;;;;;19.15;3.13;;;;;;;22.43;59.57;100154.41;10413764;28;20448;-72
2023/07/17 19:56:32;;;;;;;10.05;2.90;;;;;;;22.40;60.55;100168.44;10410954;28;20084;-71
2023/07/17 20:01:32;;;;;;;10.57;2.45;;;;;;;22.07;60.99;100146.59;10397001;28;20049;-72
2023/07/17 20:06:33;;;;;;;8.00;2.22;;;;;;;21.61;60.97;100085.63;10389940;28;20041;-71
2023/07/17 20:11:35;;;;;;;13.80;2.25;;;;;;;22.05;61.82;100164.16;10404359;28;20068;-72
2023/07/17 20:16:35;;;;;;;15.10;2.97;;;;;;;21.91;62.09;100152.84;10420785;28;20132;-72
2023/07/17 20:21:38;;;;;;;14.40;2.95;;;;;;;21.98;63.22;100174.31;10420880;28;20057;-71
2023/07/17 20:26:39;;;;;;;10.93;2.50;;;;;;;21.84;64.03;100166.56;10420030;28;20547;-72
2023/07/17 20:31:39;;;;;;;15.75;3.10;;;;;;;21.68;64.35;100153.03;10419344;28;20056;-72
2023/07/17 20:36:41;;;;;;;13.65;3.20;;;;;;;21.80;64.74;100187.03;10418725;28;20045;-72
2023/07/17 20:41:41;;;;;;;13.75;3.03;;;;;;;21.74;65.20;100182.59;10419255;28;20065;-72
2023/07/17 20:46:43;;;;;;;8.77;2.85;;;;;;;21.64;65.27;100177.03;10413890;28;20072;-72
2023/07/17 20:51:43;;;;;;;11.55;3.20;;;;;;;20.90;65.89;100059.03;10406943;28;20042;-72
2023/07/17 20:56:44;;;;;;;7.60;2.90;;;;;;;21.45;65.54;100145.88;10405534;28;20046;-72
2023/07/17 21:01:45;;;;;;;8.00;2.58;;;;;;;21.03;65.12;100070.56;10418680;28;20045;-71
2023/07/17 21:06:46;;;;;;;15.02;2.75;;;;;;;21.74;64.81;100165.56;10418822;28;20048;-71
2023/07/17 21:11:47;;;;;;;8.18;2.92;;;;;;;21.40;64.29;100115.03;10417655;28;20048;-72
2023/07/17 21:16:48;;;;;;;5.00;2.60;;;;;;;21.65;63.85;100162.44;10417577;28;20436;-72
2023/07/17 21:21:49;;;;;;;10.48;2.60;;;;;;;21.62;64.76;100176.44;10417630;28;20065;-72
2023/07/17 21:26:50;;;;;;;4.47;2.20;;;;;;;21.35;64.80;100130.28;10417969;28;20073;-72
2023/07/17 21:31:51;;;;;;;5.75;2.10;;;;;;;21.64;64.18;100167.03;10417140;28;20033;-72
2023/07/17 21:36:51;;;;;;;12.93;2.65;;;;;;;21.41;64.25;100140.16;10416901;28;20042;-72
2023/07/17 21:41:52;;;;;;;6.82;2.50;;;;;;;21.36;64.68;100146.31;10417759;28;20037;-72
2023/07/17 21:46:53;;;;;;;13.07;2.60;;;;;;;21.37;65.56;100166.03;10417767;28;20037;-71
2023/07/17 21:51:54;;;;;;;21.17;2.95;;;;;;;21.15;65.68;100149.69;10415505;28;20035;-71
2023/07/17 21:56:54;;;;;;;6.53;2.60;;;;;;;21.06;65.88;100137.59;10416852;28;20045;-71
2023/07/17 22:01:55;;;;;;;9.25;2.60;;;;;;;20.78;66.85;100116.84;10416462;28;20033;-71
2023/07/17 22:06:56;;;;;;;9.27;2.30;;;;;;;20.70;67.40;100118.03;10415781;28;20037;-71
2023/07/17 22:11:57;;;;;;;15.13;3.00;;;;;;;20.56;67.70;100103.19;10414354;28;20060;-71
2023/07/17 22:17:03;;;;;;;6.97;2.97;;;;;;;20.56;68.94;100130.19;10415929;28;20045;-71
2023/07/17 22:22:05;;;;;;;9.43;2.75;;;;;;;20.36;67.92;100095.47;10416262;28;20053;-71
2023/07/17 22:27:06;;;;;;;15.90;2.83;;;;;;;19.78;68.07;100017.16;10407812;28;20443;-71
2023/07/17 22:32:07;;;;;;;12.52;2.95;;;;;;;20.52;68.56;100146.84;10414953;28;20128;-71
2023/07/17 22:37:08;;;;;;;5.57;2.50;;;;;;;20.43;69.18;100147.41;10385719;28;20046;-71
2023/07/17 22:42:09;;;;;;;13.68;2.75;;;;;;;19.85;69.67;100087.09;10374402;28;20034;-72
2023/07/17 22:47:09;;;;;;;22.77;3.50;;;;;;;19.90;70.50;100116.88;10374463;28;20041;-71
2023/07/17 22:52:10;;;;;;;14.10;3.22;;;;;;;20.00;70.87;100152.16;10373406;28;20048;-71
2023/07/17 22:57:13;;;;;;;18.67;2.92;;;;;;;19.82;70.98;100147.69;10373613;28;20049;-71
2023/07/17 23:02:13;;;;;;;19.67;3.40;;;;;;;19.15;71.95;100050.13;10373651;28;20038;-71